sensor_id;sensor_type;location;lat;lon;timestamp;P1;durP1;ratioP1;P2;durP2;ratioP2
142;SDS011;23959;49.046;8.468;2022-07-09T00:00:28;13.30;;;4.93;;
142;SDS011;23959;49.046;8.468;2022-07-09T00:02:54;8.53;;;5.60;;
142;SDS011;23959;49.046;8.468;2022-07-09T00:05:20;9.70;;;6.27;;
142;SDS011;23959;49.046;8.468;2022-07-09T00:07:46;11.30;;;5.17;;
142;SDS011;23959;49.046;8.468;2022-07-09T00:10:13;9.60;;;5.63;;
142;SDS011;23959;49.046;8.468;2022-07-09T00:12:39;9.80;;;5.80;;
142;SDS011;23959;49.046;8.468;2022-07-09T00:15:06;9.83;;;6.03;;
142;SDS011;23959;49.046;8.468;2022-07-09T00:17:32;8.80;;;5.70;;
142;SDS011;23959;49.046;8.468;2022-07-09T00:19:59;13.03;;;5.50;;
142;SDS011;23959;49.046;8.468;2022-07-09T00:22:27;8.77;;;5.73;;
142;SDS011;23959;49.046;8.468;2022-07-09T00:24:53;11.53;;;6.20;;
142;SDS011;23959;49.046;8.468;2022-07-09T00:27:19;11.47;;;6.07;;
142;SDS011;23959;49.046;8.468;2022-07-09T00:29:45;9.90;;;5.93;;
142;SDS011;23959;49.046;8.468;2022-07-09T00:32:11;14.90;;;5.77;;
142;SDS011;23959;49.046;8.468;2022-07-09T00:34:37;13.23;;;5.90;;
142;SDS011;23959;49.046;8.468;2022-07-09T00:37:04;8.20;;;5.73;;
142;SDS011;23959;49.046;8.468;2022-07-09T00:39:30;8.90;;;5.80;;
142;SDS011;23959;49.046;8.468;2022-07-09T00:42:07;14.80;;;5.73;;
142;SDS011;23959;49.046;8.468;2022-07-09T00:44:34;8.10;;;5.73;;
142;SDS011;23959;49.046;8.468;2022-07-09T00:47:01;8.10;;;5.70;;
142;SDS011;23959;49.046;8.468;2022-07-09T00:49:29;16.37;;;6.33;;
142;SDS011;23959;49.046;8.468;2022-07-09T00:51:57;9.03;;;5.67;;
142;SDS011;23959;49.046;8.468;2022-07-09T00:54:24;9.73;;;5.93;;
142;SDS011;23959;49.046;8.468;2022-07-09T00:56:51;15.07;;;5.90;;
142;SDS011;23959;49.046;8.468;2022-07-09T00:59:19;11.47;;;6.70;;
142;SDS011;23959;49.046;8.468;2022-07-09T01:01:51;11.40;;;6.43;;
142;SDS011;23959;49.046;8.468;2022-07-09T01:04:18;10.13;;;6.00;;
142;SDS011;23959;49.046;8.468;2022-07-09T01:06:44;10.10;;;6.00;;
142;SDS011;23959;49.046;8.468;2022-07-09T01:09:10;13.93;;;7.30;;
142;SDS011;23959;49.046;8.468;2022-07-09T01:11:37;11.90;;;5.90;;
142;SDS011;23959;49.046;8.468;2022-07-09T01:14:03;10.90;;;6.10;;
142;SDS011;23959;49.046;8.468;2022-07-09T01:16:35;16.67;;;6.40;;
142;SDS011;23959;49.046;8.468;2022-07-09T01:19:03;8.80;;;5.90;;
142;SDS011;23959;49.046;8.468;2022-07-09T01:21:29;9.90;;;6.00;;
142;SDS011;23959;49.046;8.468;2022-07-09T01:23:56;9.53;;;6.10;;
142;SDS011;23959;49.046;8.468;2022-07-09T01:26:23;9.60;;;5.70;;
142;SDS011;23959;49.046;8.468;2022-07-09T01:28:50;11.10;;;6.43;;
142;SDS011;23959;49.046;8.468;2022-07-09T01:31:16;12.27;;;6.10;;
142;SDS011;23959;49.046;8.468;2022-07-09T01:33:42;12.73;;;5.90;;
142;SDS011;23959;49.046;8.468;2022-07-09T01:36:09;15.07;;;5.90;;
142;SDS011;23959;49.046;8.468;2022-07-09T01:38:36;8.70;;;5.80;;
142;SDS011;23959;49.046;8.468;2022-07-09T01:41:02;8.77;;;5.60;;
142;SDS011;23959;49.046;8.468;2022-07-09T01:43:29;19.50;;;6.87;;
142;SDS011;23959;49.046;8.468;2022-07-09T01:45:56;10.20;;;6.20;;
142;SDS011;23959;49.046;8.468;2022-07-09T01:48:26;16.43;;;6.27;;
142;SDS011;23959;49.046;8.468;2022-07-09T01:50:55;13.10;;;6.07;;
142;SDS011;23959;49.046;8.468;2022-07-09T01:53:21;11.07;;;6.80;;
142;SDS011;23959;49.046;8.468;2022-07-09T01:55:47;9.77;;;5.77;;
142;SDS011;23959;49.046;8.468;2022-07-09T01:58:13;11.50;;;6.40;;
142;SDS011;23959;49.046;8.468;2022-07-09T02:00:40;11.53;;;6.13;;
142;SDS011;23959;49.046;8.468;2022-07-09T02:03:06;11.70;;;6.40;;
142;SDS011;23959;49.046;8.468;2022-07-09T02:05:32;11.63;;;6.40;;
142;SDS011;23959;49.046;8.468;2022-07-09T02:07:59;13.43;;;6.43;;
142;SDS011;23959;49.046;8.468;2022-07-09T02:10:25;10.30;;;6.23;;
142;SDS011;23959;49.046;8.468;2022-07-09T02:12:51;10.20;;;6.47;;
142;SDS011;23959;49.046;8.468;2022-07-09T02:15:18;15.20;;;6.27;;
142;SDS011;23959;49.046;8.468;2022-07-09T02:17:44;11.57;;;6.33;;
142;SDS011;23959;49.046;8.468;2022-07-09T02:20:11;9.60;;;6.43;;
142;SDS011;23959;49.046;8.468;2022-07-09T02:22:37;10.63;;;6.80;;
142;SDS011;23959;49.046;8.468;2022-07-09T02:25:04;11.17;;;6.23;;
142;SDS011;23959;49.046;8.468;2022-07-09T02:27:31;13.27;;;7.40;;
142;SDS011;23959;49.046;8.468;2022-07-09T02:29:57;11.33;;;6.67;;
142;SDS011;23959;49.046;8.468;2022-07-09T02:32:23;8.53;;;5.67;;
142;SDS011;23959;49.046;8.468;2022-07-09T02:34:49;10.07;;;6.03;;
142;SDS011;23959;49.046;8.468;2022-07-09T02:37:16;11.30;;;6.57;;
142;SDS011;23959;49.046;8.468;2022-07-09T02:39:42;12.83;;;6.60;;
142;SDS011;23959;49.046;8.468;2022-07-09T02:42:08;12.80;;;6.97;;
142;SDS011;23959;49.046;8.468;2022-07-09T02:44:34;12.20;;;6.50;;
142;SDS011;23959;49.046;8.468;2022-07-09T02:47:00;9.63;;;6.10;;
142;SDS011;23959;49.046;8.468;2022-07-09T02:49:26;8.20;;;6.20;;
142;SDS011;23959;49.046;8.468;2022-07-09T02:51:52;7.87;;;6.03;;
142;SDS011;23959;49.046;8.468;2022-07-09T02:54:20;12.27;;;6.33;;
142;SDS011;23959;49.046;8.468;2022-07-09T02:56:46;14.83;;;6.40;;
142;SDS011;23959;49.046;8.468;2022-07-09T02:59:12;9.20;;;6.27;;
142;SDS011;23959;49.046;8.468;2022-07-09T03:01:38;11.87;;;6.87;;
142;SDS011;23959;49.046;8.468;2022-07-09T03:04:05;13.60;;;6.40;;
142;SDS011;23959;49.046;8.468;2022-07-09T03:06:31;12.27;;;6.60;;
142;SDS011;23959;49.046;8.468;2022-07-09T03:08:57;13.10;;;6.40;;
142;SDS011;23959;49.046;8.468;2022-07-09T03:11:23;9.27;;;6.27;;
142;SDS011;23959;49.046;8.468;2022-07-09T03:13:49;10.73;;;6.20;;
142;SDS011;23959;49.046;8.468;2022-07-09T03:16:15;10.53;;;7.07;;
142;SDS011;23959;49.046;8.468;2022-07-09T03:18:42;16.10;;;6.50;;
142;SDS011;23959;49.046;8.468;2022-07-09T03:21:08;15.13;;;6.40;;
142;SDS011;23959;49.046;8.468;2022-07-09T03:23:34;12.87;;;6.90;;
142;SDS011;23959;49.046;8.468;2022-07-09T03:26:00;14.77;;;6.77;;
142;SDS011;23959;49.046;8.468;2022-07-09T03:28:26;14.10;;;7.03;;
142;SDS011;23959;49.046;8.468;2022-07-09T03:30:53;15.30;;;7.33;;
142;SDS011;23959;49.046;8.468;2022-07-09T03:33:19;11.03;;;6.53;;
142;SDS011;23959;49.046;8.468;2022-07-09T03:35:45;11.70;;;6.90;;
142;SDS011;23959;49.046;8.468;2022-07-09T03:38:11;10.97;;;6.80;;
142;SDS011;23959;49.046;8.468;2022-07-09T03:40:37;12.03;;;6.50;;
142;SDS011;23959;49.046;8.468;2022-07-09T03:43:03;11.30;;;6.63;;
142;SDS011;23959;49.046;8.468;2022-07-09T03:45:29;14.83;;;7.73;;
142;SDS011;23959;49.046;8.468;2022-07-09T03:47:55;12.33;;;6.90;;
142;SDS011;23959;49.046;8.468;2022-07-09T03:50:22;13.00;;;6.73;;
142;SDS011;23959;49.046;8.468;2022-07-09T03:52:48;12.10;;;6.90;;
142;SDS011;23959;49.046;8.468;2022-07-09T03:55:14;12.87;;;6.93;;
142;SDS011;23959;49.046;8.468;2022-07-09T03:57:41;11.40;;;7.43;;
142;SDS011;23959;49.046;8.468;2022-07-09T04:00:08;11.07;;;6.60;;
142;SDS011;23959;49.046;8.468;2022-07-09T04:02:34;14.03;;;7.17;;
142;SDS011;23959;49.046;8.468;2022-07-09T04:05:00;21.33;;;9.13;;
142;SDS011;23959;49.046;8.468;2022-07-09T04:07:27;14.60;;;7.60;;
142;SDS011;23959;49.046;8.468;2022-07-09T04:09:53;11.50;;;7.27;;
142;SDS011;23959;49.046;8.468;2022-07-09T04:12:20;15.43;;;7.00;;
142;SDS011;23959;49.046;8.468;2022-07-09T04:14:46;13.23;;;6.53;;
142;SDS011;23959;49.046;8.468;2022-07-09T04:17:12;12.13;;;6.17;;
142;SDS011;23959;49.046;8.468;2022-07-09T04:19:39;14.43;;;7.00;;
142;SDS011;23959;49.046;8.468;2022-07-09T04:22:05;14.83;;;7.20;;
142;SDS011;23959;49.046;8.468;2022-07-09T04:24:31;14.90;;;6.73;;
142;SDS011;23959;49.046;8.468;2022-07-09T04:26:57;10.40;;;6.87;;
142;SDS011;23959;49.046;8.468;2022-07-09T04:29:23;14.77;;;7.10;;
142;SDS011;23959;49.046;8.468;2022-07-09T04:31:49;16.63;;;7.30;;
142;SDS011;23959;49.046;8.468;2022-07-09T04:34:15;12.83;;;7.07;;
142;SDS011;23959;49.046;8.468;2022-07-09T04:36:42;14.60;;;7.00;;
142;SDS011;23959;49.046;8.468;2022-07-09T04:39:08;11.03;;;6.80;;
142;SDS011;23959;49.046;8.468;2022-07-09T04:41:35;14.03;;;7.17;;
142;SDS011;23959;49.046;8.468;2022-07-09T04:44:02;12.20;;;6.73;;
142;SDS011;23959;49.046;8.468;2022-07-09T04:46:28;13.03;;;6.80;;
142;SDS011;23959;49.046;8.468;2022-07-09T04:48:56;10.50;;;6.57;;
142;SDS011;23959;49.046;8.468;2022-07-09T04:51:23;9.53;;;5.80;;
142;SDS011;23959;49.046;8.468;2022-07-09T04:53:49;9.97;;;6.63;;
142;SDS011;23959;49.046;8.468;2022-07-09T04:56:15;10.20;;;6.40;;
142;SDS011;23959;49.046;8.468;2022-07-09T04:58:41;16.53;;;7.47;;
142;SDS011;23959;49.046;8.468;2022-07-09T05:01:20;16.10;;;6.33;;
142;SDS011;23959;49.046;8.468;2022-07-09T05:03:47;9.90;;;6.07;;
142;SDS011;23959;49.046;8.468;2022-07-09T05:06:15;11.93;;;6.57;;
142;SDS011;23959;49.046;8.468;2022-07-09T05:08:44;11.33;;;7.27;;
142;SDS011;23959;49.046;8.468;2022-07-09T05:11:10;14.00;;;6.33;;
142;SDS011;23959;49.046;8.468;2022-07-09T05:13:37;9.83;;;6.60;;
142;SDS011;23959;49.046;8.468;2022-07-09T05:16:06;11.93;;;6.40;;
142;SDS011;23959;49.046;8.468;2022-07-09T05:18:33;13.00;;;6.37;;
142;SDS011;23959;49.046;8.468;2022-07-09T05:21:00;8.80;;;6.23;;
142;SDS011;23959;49.046;8.468;2022-07-09T05:23:26;8.53;;;6.00;;
142;SDS011;23959;49.046;8.468;2022-07-09T05:25:52;10.20;;;6.63;;
142;SDS011;23959;49.046;8.468;2022-07-09T05:28:19;9.77;;;6.10;;
142;SDS011;23959;49.046;8.468;2022-07-09T05:30:45;10.50;;;7.17;;
142;SDS011;23959;49.046;8.468;2022-07-09T05:33:11;12.60;;;7.10;;
142;SDS011;23959;49.046;8.468;2022-07-09T05:35:37;9.67;;;5.40;;
142;SDS011;23959;49.046;8.468;2022-07-09T05:38:04;7.47;;;5.03;;
142;SDS011;23959;49.046;8.468;2022-07-09T05:40:30;10.97;;;6.00;;
142;SDS011;23959;49.046;8.468;2022-07-09T05:42:56;9.47;;;5.80;;
142;SDS011;23959;49.046;8.468;2022-07-09T05:45:22;8.00;;;6.10;;
142;SDS011;23959;49.046;8.468;2022-07-09T05:47:49;7.73;;;5.93;;
142;SDS011;23959;49.046;8.468;2022-07-09T05:50:15;9.13;;;5.97;;
142;SDS011;23959;49.046;8.468;2022-07-09T05:52:41;10.80;;;6.33;;
142;SDS011;23959;49.046;8.468;2022-07-09T05:55:07;7.40;;;5.67;;
142;SDS011;23959;49.046;8.468;2022-07-09T05:57:33;7.90;;;5.87;;
142;SDS011;23959;49.046;8.468;2022-07-09T06:00:00;14.93;;;5.77;;
142;SDS011;23959;49.046;8.468;2022-07-09T06:02:26;8.07;;;5.67;;
142;SDS011;23959;49.046;8.468;2022-07-09T06:04:53;8.77;;;5.97;;
142;SDS011;23959;49.046;8.468;2022-07-09T06:07:19;15.30;;;6.50;;
142;SDS011;23959;49.046;8.468;2022-07-09T06:09:45;12.23;;;5.57;;
142;SDS011;23959;49.046;8.468;2022-07-09T06:12:11;11.00;;;6.13;;
142;SDS011;23959;49.046;8.468;2022-07-09T06:14:37;13.00;;;5.10;;
142;SDS011;23959;49.046;8.468;2022-07-09T06:17:03;12.20;;;6.00;;
142;SDS011;23959;49.046;8.468;2022-07-09T06:19:36;9.60;;;5.97;;
142;SDS011;23959;49.046;8.468;2022-07-09T06:22:02;13.80;;;5.90;;
142;SDS011;23959;49.046;8.468;2022-07-09T06:24:29;10.40;;;5.50;;
142;SDS011;23959;49.046;8.468;2022-07-09T06:26:56;12.23;;;6.30;;
142;SDS011;23959;49.046;8.468;2022-07-09T06:29:22;9.10;;;5.90;;
142;SDS011;23959;49.046;8.468;2022-07-09T06:31:48;9.33;;;5.90;;
142;SDS011;23959;49.046;8.468;2022-07-09T06:34:14;10.30;;;5.93;;
142;SDS011;23959;49.046;8.468;2022-07-09T06:36:40;14.57;;;6.80;;
142;SDS011;23959;49.046;8.468;2022-07-09T06:39:10;12.93;;;6.03;;
142;SDS011;23959;49.046;8.468;2022-07-09T06:42:02;9.97;;;6.00;;
142;SDS011;23959;49.046;8.468;2022-07-09T06:44:33;12.63;;;6.33;;
142;SDS011;23959;49.046;8.468;2022-07-09T06:47:00;6.27;;;5.50;;
142;SDS011;23959;49.046;8.468;2022-07-09T06:49:26;11.93;;;5.97;;
142;SDS011;23959;49.046;8.468;2022-07-09T06:51:52;12.43;;;7.00;;
142;SDS011;23959;49.046;8.468;2022-07-09T06:54:18;9.30;;;6.40;;
142;SDS011;23959;49.046;8.468;2022-07-09T06:56:45;14.40;;;7.30;;
142;SDS011;23959;49.046;8.468;2022-07-09T06:59:11;15.27;;;6.20;;
142;SDS011;23959;49.046;8.468;2022-07-09T07:01:38;16.97;;;6.93;;
142;SDS011;23959;49.046;8.468;2022-07-09T07:04:05;9.93;;;6.93;;
142;SDS011;23959;49.046;8.468;2022-07-09T07:06:32;9.90;;;6.67;;
142;SDS011;23959;49.046;8.468;2022-07-09T07:08:58;10.17;;;6.23;;
142;SDS011;23959;49.046;8.468;2022-07-09T07:11:24;13.73;;;6.13;;
142;SDS011;23959;49.046;8.468;2022-07-09T07:13:50;12.60;;;6.83;;
142;SDS011;23959;49.046;8.468;2022-07-09T07:16:16;10.00;;;6.37;;
142;SDS011;23959;49.046;8.468;2022-07-09T07:18:43;13.23;;;6.70;;
142;SDS011;23959;49.046;8.468;2022-07-09T07:21:09;10.70;;;6.00;;
142;SDS011;23959;49.046;8.468;2022-07-09T07:23:35;9.90;;;6.40;;
142;SDS011;23959;49.046;8.468;2022-07-09T07:26:01;11.03;;;5.90;;
142;SDS011;23959;49.046;8.468;2022-07-09T07:28:27;15.90;;;6.30;;
142;SDS011;23959;49.046;8.468;2022-07-09T07:30:53;11.43;;;5.73;;
142;SDS011;23959;49.046;8.468;2022-07-09T07:33:20;11.53;;;5.93;;
142;SDS011;23959;49.046;8.468;2022-07-09T07:35:46;11.40;;;6.03;;
142;SDS011;23959;49.046;8.468;2022-07-09T07:38:13;9.60;;;5.27;;
142;SDS011;23959;49.046;8.468;2022-07-09T07:40:39;12.80;;;5.70;;
142;SDS011;23959;49.046;8.468;2022-07-09T07:43:05;6.60;;;5.70;;
142;SDS011;23959;49.046;8.468;2022-07-09T07:45:32;8.13;;;4.67;;
142;SDS011;23959;49.046;8.468;2022-07-09T07:47:58;11.30;;;4.63;;
142;SDS011;23959;49.046;8.468;2022-07-09T07:50:24;8.10;;;4.67;;
142;SDS011;23959;49.046;8.468;2022-07-09T07:52:50;10.20;;;5.20;;
142;SDS011;23959;49.046;8.468;2022-07-09T07:55:16;8.57;;;5.10;;
142;SDS011;23959;49.046;8.468;2022-07-09T07:57:43;8.27;;;4.93;;
142;SDS011;23959;49.046;8.468;2022-07-09T08:00:09;6.40;;;4.70;;
142;SDS011;23959;49.046;8.468;2022-07-09T08:02:36;9.63;;;4.40;;
142;SDS011;23959;49.046;8.468;2022-07-09T08:05:02;6.37;;;4.90;;
142;SDS011;23959;49.046;8.468;2022-07-09T08:07:28;8.77;;;4.70;;
142;SDS011;23959;49.046;8.468;2022-07-09T08:09:55;7.00;;;4.40;;
142;SDS011;23959;49.046;8.468;2022-07-09T08:12:21;6.83;;;4.30;;
142;SDS011;23959;49.046;8.468;2022-07-09T08:14:47;6.53;;;4.70;;
142;SDS011;23959;49.046;8.468;2022-07-09T08:17:13;5.27;;;4.10;;
142;SDS011;23959;49.046;8.468;2022-07-09T08:19:39;4.80;;;4.00;;
142;SDS011;23959;49.046;8.468;2022-07-09T08:22:06;8.37;;;3.77;;
142;SDS011;23959;49.046;8.468;2022-07-09T08:24:32;5.93;;;3.80;;
142;SDS011;23959;49.046;8.468;2022-07-09T08:26:58;7.87;;;3.73;;
142;SDS011;23959;49.046;8.468;2022-07-09T08:29:24;6.30;;;3.60;;
142;SDS011;23959;49.046;8.468;2022-07-09T08:31:51;8.90;;;4.10;;
142;SDS011;23959;49.046;8.468;2022-07-09T08:34:17;7.70;;;3.77;;
142;SDS011;23959;49.046;8.468;2022-07-09T08:36:43;8.13;;;3.90;;
142;SDS011;23959;49.046;8.468;2022-07-09T08:39:10;6.30;;;3.40;;
142;SDS011;23959;49.046;8.468;2022-07-09T08:41:36;4.07;;;3.20;;
142;SDS011;23959;49.046;8.468;2022-07-09T08:44:03;7.30;;;3.87;;
142;SDS011;23959;49.046;8.468;2022-07-09T08:46:31;4.47;;;3.50;;
142;SDS011;23959;49.046;8.468;2022-07-09T08:48:57;5.00;;;3.07;;
142;SDS011;23959;49.046;8.468;2022-07-09T08:51:25;4.00;;;3.13;;
142;SDS011;23959;49.046;8.468;2022-07-09T08:53:53;5.50;;;3.67;;
142;SDS011;23959;49.046;8.468;2022-07-09T08:56:20;5.47;;;3.37;;
142;SDS011;23959;49.046;8.468;2022-07-09T08:58:46;11.50;;;3.40;;
142;SDS011;23959;49.046;8.468;2022-07-09T09:01:13;7.70;;;3.10;;
142;SDS011;23959;49.046;8.468;2022-07-09T09:03:41;9.10;;;3.17;;
142;SDS011;23959;49.046;8.468;2022-07-09T09:06:09;3.53;;;2.43;;
142;SDS011;23959;49.046;8.468;2022-07-09T09:08:36;5.60;;;3.20;;
142;SDS011;23959;49.046;8.468;2022-07-09T09:11:07;5.10;;;3.40;;
142;SDS011;23959;49.046;8.468;2022-07-09T09:13:39;5.60;;;3.33;;
142;SDS011;23959;49.046;8.468;2022-07-09T09:16:07;8.83;;;3.33;;
142;SDS011;23959;49.046;8.468;2022-07-09T09:18:42;6.03;;;3.10;;
142;SDS011;23959;49.046;8.468;2022-07-09T09:21:10;6.23;;;3.53;;
142;SDS011;23959;49.046;8.468;2022-07-09T09:26:09;3.57;;;3.37;;
142;SDS011;23959;49.046;8.468;2022-07-09T09:33:48;7.27;;;3.20;;
142;SDS011;23959;49.046;8.468;2022-07-09T09:36:28;9.70;;;3.90;;
142;SDS011;23959;49.046;8.468;2022-07-09T09:42:06;3.97;;;3.40;;
142;SDS011;23959;49.046;8.468;2022-07-09T09:44:39;6.60;;;3.43;;
142;SDS011;23959;49.046;8.468;2022-07-09T09:47:08;4.73;;;3.50;;
142;SDS011;23959;49.046;8.468;2022-07-09T09:49:36;3.80;;;3.20;;
142;SDS011;23959;49.046;8.468;2022-07-09T09:52:04;3.30;;;3.10;;
142;SDS011;23959;49.046;8.468;2022-07-09T09:54:32;7.63;;;3.27;;
142;SDS011;23959;49.046;8.468;2022-07-09T09:57:02;4.57;;;3.50;;
142;SDS011;23959;49.046;8.468;2022-07-09T09:59:32;5.43;;;3.30;;
142;SDS011;23959;49.046;8.468;2022-07-09T10:02:01;10.50;;;3.27;;
142;SDS011;23959;49.046;8.468;2022-07-09T10:04:27;6.50;;;3.30;;
142;SDS011;23959;49.046;8.468;2022-07-09T10:06:54;3.20;;;3.00;;
142;SDS011;23959;49.046;8.468;2022-07-09T10:09:20;5.03;;;2.83;;
142;SDS011;23959;49.046;8.468;2022-07-09T10:11:47;4.17;;;2.63;;
142;SDS011;23959;49.046;8.468;2022-07-09T10:16:53;6.83;;;2.80;;
142;SDS011;23959;49.046;8.468;2022-07-09T10:19:29;2.80;;;2.60;;
142;SDS011;23959;49.046;8.468;2022-07-09T10:21:58;2.70;;;2.43;;
142;SDS011;23959;49.046;8.468;2022-07-09T10:24:33;2.73;;;2.50;;
142;SDS011;23959;49.046;8.468;2022-07-09T10:29:36;7.40;;;2.67;;
142;SDS011;23959;49.046;8.468;2022-07-09T10:32:29;2.73;;;2.40;;
142;SDS011;23959;49.046;8.468;2022-07-09T10:37:30;3.27;;;2.30;;
142;SDS011;23959;49.046;8.468;2022-07-09T10:40:03;4.67;;;2.40;;
142;SDS011;23959;49.046;8.468;2022-07-09T10:42:59;3.70;;;2.60;;
142;SDS011;23959;49.046;8.468;2022-07-09T10:45:28;4.07;;;2.60;;
142;SDS011;23959;49.046;8.468;2022-07-09T10:48:02;4.20;;;2.50;;
142;SDS011;23959;49.046;8.468;2022-07-09T10:50:31;3.63;;;2.63;;
142;SDS011;23959;49.046;8.468;2022-07-09T10:52:58;5.70;;;2.97;;
142;SDS011;23959;49.046;8.468;2022-07-09T10:55:28;3.73;;;3.10;;
142;SDS011;23959;49.046;8.468;2022-07-09T10:57:55;8.87;;;3.73;;
142;SDS011;23959;49.046;8.468;2022-07-09T11:00:26;4.43;;;2.83;;
142;SDS011;23959;49.046;8.468;2022-07-09T11:05:29;3.60;;;3.10;;
142;SDS011;23959;49.046;8.468;2022-07-09T11:10:32;3.83;;;3.00;;
142;SDS011;23959;49.046;8.468;2022-07-09T11:13:01;3.87;;;3.20;;
142;SDS011;23959;49.046;8.468;2022-07-09T11:15:31;4.30;;;3.00;;
142;SDS011;23959;49.046;8.468;2022-07-09T11:18:09;5.03;;;3.50;;
142;SDS011;23959;49.046;8.468;2022-07-09T11:20:43;5.80;;;3.03;;
142;SDS011;23959;49.046;8.468;2022-07-09T11:23:11;3.50;;;3.13;;
142;SDS011;23959;49.046;8.468;2022-07-09T11:25:38;3.40;;;3.10;;
142;SDS011;23959;49.046;8.468;2022-07-09T11:28:04;5.97;;;3.57;;
142;SDS011;23959;49.046;8.468;2022-07-09T11:30:31;5.20;;;3.30;;
142;SDS011;23959;49.046;8.468;2022-07-09T11:32:59;3.70;;;3.50;;
142;SDS011;23959;49.046;8.468;2022-07-09T11:37:59;4.83;;;3.50;;
142;SDS011;23959;49.046;8.468;2022-07-09T11:40:29;5.23;;;3.70;;
142;SDS011;23959;49.046;8.468;2022-07-09T11:42:56;3.60;;;3.40;;
142;SDS011;23959;49.046;8.468;2022-07-09T11:45:29;5.40;;;3.60;;
142;SDS011;23959;49.046;8.468;2022-07-09T11:48:07;9.10;;;4.03;;
142;SDS011;23959;49.046;8.468;2022-07-09T11:50:45;6.33;;;4.23;;
142;SDS011;23959;49.046;8.468;2022-07-09T11:53:20;3.93;;;3.73;;
142;SDS011;23959;49.046;8.468;2022-07-09T11:56:02;3.90;;;3.70;;
142;SDS011;23959;49.046;8.468;2022-07-09T11:58:32;7.73;;;3.90;;
142;SDS011;23959;49.046;8.468;2022-07-09T12:00:58;4.67;;;3.53;;
142;SDS011;23959;49.046;8.468;2022-07-09T12:03:26;3.67;;;3.50;;
142;SDS011;23959;49.046;8.468;2022-07-09T12:05:53;4.00;;;3.67;;
142;SDS011;23959;49.046;8.468;2022-07-09T12:08:29;4.20;;;3.33;;
142;SDS011;23959;49.046;8.468;2022-07-09T12:10:57;5.63;;;3.40;;
142;SDS011;23959;49.046;8.468;2022-07-09T12:13:23;4.43;;;3.60;;
142;SDS011;23959;49.046;8.468;2022-07-09T12:15:49;5.57;;;3.60;;
142;SDS011;23959;49.046;8.468;2022-07-09T12:18:16;3.50;;;3.00;;
142;SDS011;23959;49.046;8.468;2022-07-09T12:20:42;4.40;;;4.10;;
142;SDS011;23959;49.046;8.468;2022-07-09T12:23:09;4.50;;;3.80;;
142;SDS011;23959;49.046;8.468;2022-07-09T12:25:35;13.00;;;3.93;;
142;SDS011;23959;49.046;8.468;2022-07-09T12:28:01;3.87;;;3.70;;
142;SDS011;23959;49.046;8.468;2022-07-09T12:30:29;5.20;;;3.60;;
142;SDS011;23959;49.046;8.468;2022-07-09T12:32:55;3.93;;;3.47;;
142;SDS011;23959;49.046;8.468;2022-07-09T12:35:24;3.73;;;3.53;;
142;SDS011;23959;49.046;8.468;2022-07-09T12:37:51;4.27;;;4.00;;
142;SDS011;23959;49.046;8.468;2022-07-09T12:40:17;9.13;;;5.47;;
142;SDS011;23959;49.046;8.468;2022-07-09T12:42:44;8.80;;;3.90;;
142;SDS011;23959;49.046;8.468;2022-07-09T12:45:10;5.93;;;5.00;;
142;SDS011;23959;49.046;8.468;2022-07-09T12:47:38;5.97;;;4.77;;
142;SDS011;23959;49.046;8.468;2022-07-09T12:50:04;3.80;;;3.60;;
142;SDS011;23959;49.046;8.468;2022-07-09T12:52:31;9.10;;;3.53;;
142;SDS011;23959;49.046;8.468;2022-07-09T12:55:02;4.10;;;3.67;;
142;SDS011;23959;49.046;8.468;2022-07-09T12:57:30;7.20;;;4.17;;
142;SDS011;23959;49.046;8.468;2022-07-09T12:59:56;3.80;;;3.60;;
142;SDS011;23959;49.046;8.468;2022-07-09T13:02:23;4.33;;;4.03;;
142;SDS011;23959;49.046;8.468;2022-07-09T13:04:49;5.10;;;4.40;;
142;SDS011;23959;49.046;8.468;2022-07-09T13:07:15;12.47;;;7.87;;
142;SDS011;23959;49.046;8.468;2022-07-09T13:09:41;17.70;;;12.50;;
142;SDS011;23959;49.046;8.468;2022-07-09T13:12:07;23.43;;;14.33;;
142;SDS011;23959;49.046;8.468;2022-07-09T13:14:35;16.53;;;11.13;;
142;SDS011;23959;49.046;8.468;2022-07-09T13:17:01;6.03;;;4.13;;
142;SDS011;23959;49.046;8.468;2022-07-09T13:19:27;6.70;;;4.73;;
142;SDS011;23959;49.046;8.468;2022-07-09T13:21:53;4.73;;;3.57;;
142;SDS011;23959;49.046;8.468;2022-07-09T13:24:19;4.77;;;3.53;;
142;SDS011;23959;49.046;8.468;2022-07-09T13:26:46;4.87;;;3.57;;
142;SDS011;23959;49.046;8.468;2022-07-09T13:29:12;4.80;;;3.90;;
142;SDS011;23959;49.046;8.468;2022-07-09T13:31:38;4.00;;;3.80;;
142;SDS011;23959;49.046;8.468;2022-07-09T13:34:04;6.93;;;3.80;;
142;SDS011;23959;49.046;8.468;2022-07-09T13:36:30;7.37;;;3.67;;
142;SDS011;23959;49.046;8.468;2022-07-09T13:38:57;4.27;;;4.00;;
142;SDS011;23959;49.046;8.468;2022-07-09T13:41:23;6.20;;;3.97;;
142;SDS011;23959;49.046;8.468;2022-07-09T13:43:49;7.80;;;4.07;;
142;SDS011;23959;49.046;8.468;2022-07-09T13:46:16;4.60;;;4.30;;
142;SDS011;23959;49.046;8.468;2022-07-09T13:48:42;3.70;;;3.37;;
142;SDS011;23959;49.046;8.468;2022-07-09T13:51:08;5.03;;;3.97;;
142;SDS011;23959;49.046;8.468;2022-07-09T13:53:34;3.57;;;3.37;;
142;SDS011;23959;49.046;8.468;2022-07-09T13:56:00;4.43;;;4.20;;
142;SDS011;23959;49.046;8.468;2022-07-09T13:58:27;4.40;;;3.87;;
142;SDS011;23959;49.046;8.468;2022-07-09T14:00:53;3.90;;;3.70;;
142;SDS011;23959;49.046;8.468;2022-07-09T14:03:21;5.40;;;3.83;;
142;SDS011;23959;49.046;8.468;2022-07-09T14:05:47;4.00;;;3.80;;
142;SDS011;23959;49.046;8.468;2022-07-09T14:08:14;4.50;;;4.20;;
142;SDS011;23959;49.046;8.468;2022-07-09T14:10:40;4.30;;;4.00;;
142;SDS011;23959;49.046;8.468;2022-07-09T14:13:06;5.13;;;3.87;;
142;SDS011;23959;49.046;8.468;2022-07-09T14:15:32;5.10;;;3.83;;
142;SDS011;23959;49.046;8.468;2022-07-09T14:17:59;4.50;;;3.53;;
142;SDS011;23959;49.046;8.468;2022-07-09T14:20:25;5.60;;;3.60;;
142;SDS011;23959;49.046;8.468;2022-07-09T14:22:51;4.47;;;3.60;;
142;SDS011;23959;49.046;8.468;2022-07-09T14:25:18;7.07;;;4.10;;
142;SDS011;23959;49.046;8.468;2022-07-09T14:27:44;4.20;;;3.77;;
142;SDS011;23959;49.046;8.468;2022-07-09T14:30:10;3.97;;;3.60;;
142;SDS011;23959;49.046;8.468;2022-07-09T14:32:36;4.13;;;3.60;;
142;SDS011;23959;49.046;8.468;2022-07-09T14:35:03;4.67;;;3.77;;
142;SDS011;23959;49.046;8.468;2022-07-09T14:37:29;4.30;;;3.77;;
142;SDS011;23959;49.046;8.468;2022-07-09T14:39:56;5.53;;;3.90;;
142;SDS011;23959;49.046;8.468;2022-07-09T14:42:22;4.00;;;3.60;;
142;SDS011;23959;49.046;8.468;2022-07-09T14:44:48;4.13;;;3.90;;
142;SDS011;23959;49.046;8.468;2022-07-09T14:47:16;4.60;;;4.30;;
142;SDS011;23959;49.046;8.468;2022-07-09T14:49:45;6.27;;;4.20;;
142;SDS011;23959;49.046;8.468;2022-07-09T14:52:15;4.33;;;4.07;;
142;SDS011;23959;49.046;8.468;2022-07-09T14:54:42;4.93;;;4.10;;
142;SDS011;23959;49.046;8.468;2022-07-09T14:57:08;4.73;;;3.80;;
142;SDS011;23959;49.046;8.468;2022-07-09T14:59:35;5.07;;;4.07;;
142;SDS011;23959;49.046;8.468;2022-07-09T15:02:01;4.63;;;4.13;;
142;SDS011;23959;49.046;8.468;2022-07-09T15:04:29;8.53;;;4.30;;
142;SDS011;23959;49.046;8.468;2022-07-09T15:06:55;6.23;;;4.10;;
142;SDS011;23959;49.046;8.468;2022-07-09T15:09:22;6.83;;;4.30;;
142;SDS011;23959;49.046;8.468;2022-07-09T15:11:48;6.83;;;3.90;;
142;SDS011;23959;49.046;8.468;2022-07-09T15:14:15;6.10;;;4.80;;
142;SDS011;23959;49.046;8.468;2022-07-09T15:16:41;4.10;;;3.90;;
142;SDS011;23959;49.046;8.468;2022-07-09T15:19:07;6.83;;;4.10;;
142;SDS011;23959;49.046;8.468;2022-07-09T15:21:33;4.50;;;3.97;;
142;SDS011;23959;49.046;8.468;2022-07-09T15:24:00;3.73;;;3.53;;
142;SDS011;23959;49.046;8.468;2022-07-09T15:26:26;4.43;;;3.90;;
142;SDS011;23959;49.046;8.468;2022-07-09T15:28:52;6.23;;;3.90;;
142;SDS011;23959;49.046;8.468;2022-07-09T15:31:20;4.00;;;3.80;;
142;SDS011;23959;49.046;8.468;2022-07-09T15:33:48;3.70;;;3.60;;
142;SDS011;23959;49.046;8.468;2022-07-09T15:36:14;5.10;;;3.97;;